createdAt,value
2023-04-25T00:07:08.081Z,81.14
2023-04-25T00:17:12.506Z,81.04
2023-04-25T00:27:16.353Z,80.81
2023-04-25T00:37:21.004Z,80.91
2023-04-25T00:47:24.988Z,81.41
2023-04-25T00:57:30.343Z,81.61
2023-04-25T01:07:34.756Z,81.94
2023-04-25T01:17:38.135Z,82.13
2023-04-25T01:27:41.852Z,82.16
2023-04-25T01:37:46.396Z,82.46
2023-04-25T01:47:51.055Z,82.93
2023-04-25T01:57:54.298Z,83.04
2023-04-25T02:08:08.010Z,82.85
2023-04-25T02:18:12.377Z,82.61
2023-04-25T02:28:17.626Z,82.81
2023-04-25T02:38:20.838Z,82.78
2023-04-25T02:48:29.638Z,82.37
2023-04-25T02:58:35.602Z,81.89
2023-04-25T03:08:38.758Z,82.59
2023-04-25T03:18:42.101Z,82.84
2023-04-25T03:28:45.190Z,82.92
2023-04-25T03:38:49.736Z,83.50
2023-04-25T03:48:53.826Z,83.32
2023-04-25T03:59:00.625Z,82.88
2023-04-25T04:09:04.623Z,83.18
2023-04-25T04:19:12.507Z,82.90
2023-04-25T04:29:22.370Z,82.22
2023-04-25T04:39:37.153Z,82.00
2023-04-25T04:49:47.488Z,81.66
2023-04-25T05:00:11.864Z,81.74
2023-04-25T05:10:53.774Z,81.67
2023-04-25T05:21:08.666Z,81.88
2023-04-25T05:31:44.017Z,81.84
2023-04-25T05:41:50.923Z,81.57
2023-04-25T05:52:12.490Z,81.15
2023-04-25T06:02:38.760Z,80.74
2023-04-25T06:12:44.498Z,79.19
2023-04-25T06:22:51.073Z,78.91
2023-04-25T06:32:54.455Z,79.67
2023-04-25T06:42:58.268Z,80.20
2023-04-25T06:53:43.625Z,79.97
2023-04-25T07:04:01.034Z,79.65
2023-04-25T07:14:40.959Z,78.58
2023-04-25T07:24:54.371Z,76.37
2023-04-25T07:34:58.651Z,76.94
2023-04-25T07:45:03.832Z,76.84
2023-04-25T07:55:07.119Z,75.19
2023-04-25T08:05:22.790Z,74.65
2023-04-25T08:15:31.018Z,74.73
2023-04-25T08:25:34.907Z,74.54
2023-04-25T08:35:38.842Z,74.17
2023-04-25T08:45:43.701Z,73.21
2023-04-25T08:55:51.566Z,73.56
2023-04-25T09:05:56.613Z,73.98
2023-04-25T09:16:00.177Z,73.92
2023-04-25T09:26:27.160Z,74.62
2023-04-25T09:36:31.896Z,74.01
2023-04-25T09:46:54.974Z,73.70
2023-04-25T09:57:12.722Z,72.15
2023-04-25T10:07:16.509Z,71.86
2023-04-25T10:17:21.954Z,69.30
2023-04-25T10:27:25.121Z,68.23
2023-04-25T10:37:28.271Z,65.79
2023-04-25T10:47:38.312Z,63.36
2023-04-25T10:57:47.346Z,62.23
2023-04-25T11:08:03.995Z,62.30
2023-04-25T11:18:11.122Z,64.66
2023-04-25T11:28:14.413Z,65.36
2023-04-25T11:38:17.611Z,64.66
2023-04-25T11:48:24.141Z,64.03
2023-04-25T11:58:29.787Z,64.41
2023-04-25T12:08:34.058Z,65.26
2023-04-25T12:18:38.224Z,66.07
2023-04-25T12:28:48.419Z,67.29
2023-04-25T12:38:52.879Z,67.79
2023-04-25T12:48:58.769Z,68.88
2023-04-25T12:59:06.040Z,68.90
2023-04-25T13:09:11.578Z,69.57
2023-04-25T13:19:14.727Z,69.87
2023-04-25T13:29:19.814Z,68.37
2023-04-25T13:39:24.979Z,67.34
2023-04-25T13:49:29.039Z,67.36
2023-04-25T13:59:32.629Z,67.18
2023-04-25T14:09:39.107Z,69.14
2023-04-25T14:19:59.688Z,69.50
2023-04-25T14:30:03.189Z,71.02
2023-04-25T14:40:20.040Z,72.25
2023-04-25T14:50:36.475Z,73.85
2023-04-25T15:00:42.277Z,74.06
2023-04-25T15:10:47.748Z,74.61
2023-04-25T15:20:56.057Z,73.88
2023-04-25T15:30:59.768Z,73.87
2023-04-25T15:41:04.806Z,73.82
2023-04-25T15:51:11.023Z,72.65
2023-04-25T16:01:14.337Z,72.98
2023-04-25T16:11:17.623Z,72.99
2023-04-25T16:21:21.450Z,73.43
2023-04-25T16:31:28.636Z,73.90
2023-04-25T16:41:42.964Z,74.24
2023-04-25T16:51:47.357Z,74.70
2023-04-25T17:02:27.888Z,74.31
2023-04-25T17:12:32.307Z,74.20
2023-04-25T17:22:43.600Z,74.08
2023-04-25T17:33:04.957Z,74.58
2023-04-25T17:43:18.908Z,75.05
2023-04-25T17:53:27.858Z,75.64
2023-04-25T18:03:36.195Z,76.51
2023-04-25T18:13:41.022Z,77.24
2023-04-25T18:23:46.823Z,78.24
2023-04-25T18:33:53.053Z,78.56
2023-04-25T18:44:19.320Z,78.89
2023-04-25T18:54:23.120Z,78.75
2023-04-25T19:04:29.448Z,78.94
2023-04-25T19:14:39.849Z,78.55
2023-04-25T19:24:48.715Z,78.74
2023-04-25T19:35:09.675Z,78.74
2023-04-25T19:56:38.185Z,80.10
2023-04-25T20:06:59.966Z,79.99
2023-04-25T20:17:15.244Z,80.59
2023-04-25T20:27:26.063Z,80.26
2023-04-25T20:37:34.831Z,80.94
2023-04-25T20:47:41.081Z,81.35
2023-04-25T20:57:58.206Z,81.74
2023-04-25T21:08:08.919Z,82.04
2023-04-25T21:18:12.363Z,81.95
2023-04-25T21:28:15.608Z,81.87
2023-04-25T21:38:18.898Z,82.01
2023-04-25T21:48:22.349Z,82.31
2023-04-25T21:58:25.445Z,83.29
2023-04-25T22:08:28.963Z,83.67
2023-04-25T22:18:32.404Z,83.63
2023-04-25T22:28:35.943Z,83.80
2023-04-25T22:38:41.151Z,83.32
2023-04-25T22:48:46.013Z,83.15
2023-04-25T22:58:50.989Z,83.69
2023-04-25T23:08:54.631Z,82.97
2023-04-25T23:18:57.881Z,82.59
2023-04-25T23:29:01.040Z,82.59
2023-04-25T23:39:05.020Z,82.71
2023-04-25T23:49:08.055Z,81.00
2023-04-25T23:59:11.470Z,81.27
